AVA9711 SKBG-SKBO
Flight info
| Callsign | AVA9711 |
|---|---|
| Flight time | 0h 33m |
| Altitude | 22000 |
| Route | UMKAG1B UMKAG Z010 AKSOK G431 ILSEV ILSEV5E |
| Aircraft | A320/M-SDE3FGHIRWY/LB1 |
Departure
| Time | 2026-04-25 13:48 |
|---|---|
| Airport | Palonegro Airport (SKBG) |
Arrival
| Time | 2026-04-25 14:21 |
|---|---|
| Airport | El Dorado International Airport (SKBO) |
| Time | Latitude | Longitude | Altitude | Speed | Heading |
|---|---|---|---|---|---|
| 2026-04-25 13:07 | 7.12734 | -73.18159 | 3903 ft | 0 kts | 10° |
| 2026-04-25 13:09 | 7.12728 | -73.18122 | 3903 ft | 0 kts | 10° |
| 2026-04-25 13:24 | 7.12727 | -73.18122 | 3905 ft | 0 kts | 10° |
| 2026-04-25 13:31 | 7.12720 | -73.18123 | 3901 ft | 4 kts | 10° |
| 2026-04-25 13:32 | 7.12695 | -73.18128 | 3903 ft | 2 kts | 10° |
| 2026-04-25 13:32 | 7.12679 | -73.18130 | 3901 ft | 4 kts | 301° |
| 2026-04-25 13:32 | 7.12672 | -73.18107 | 3901 ft | 4 kts | 280° |
| 2026-04-25 13:32 | 7.12671 | -73.18099 | 3901 ft | 0 kts | 280° |
| 2026-04-25 13:41 | 7.12671 | -73.18101 | 3905 ft | 2 kts | 280° |
| 2026-04-25 13:41 | 7.12679 | -73.18144 | 3905 ft | 7 kts | 279° |
| 2026-04-25 13:41 | 7.12686 | -73.18185 | 3903 ft | 5 kts | 280° |
| 2026-04-25 13:41 | 7.12692 | -73.18217 | 3903 ft | 4 kts | 281° |
| 2026-04-25 13:42 | 7.12697 | -73.18242 | 3903 ft | 3 kts | 281° |
| 2026-04-25 13:42 | 7.12701 | -73.18263 | 3903 ft | 5 kts | 284° |
| 2026-04-25 13:42 | 7.12731 | -73.18310 | 3903 ft | 11 kts | 294° |
| 2026-04-25 13:42 | 7.12754 | -73.18397 | 3907 ft | 13 kts | 301° |
| 2026-04-25 13:43 | 7.12828 | -73.18440 | 3909 ft | 14 kts | 339° |
| 2026-04-25 13:43 | 7.12927 | -73.18477 | 3908 ft | 14 kts | 339° |
| 2026-04-25 13:43 | 7.13014 | -73.18511 | 3911 ft | 13 kts | 339° |
| 2026-04-25 13:43 | 7.13091 | -73.18540 | 3911 ft | 11 kts | 339° |
| 2026-04-25 13:44 | 7.13159 | -73.18566 | 3911 ft | 10 kts | 336° |
| 2026-04-25 13:44 | 7.13173 | -73.18580 | 3911 ft | 0 kts | 297° |
| 2026-04-25 13:46 | 7.13175 | -73.18585 | 3911 ft | 4 kts | 297° |
| 2026-04-25 13:46 | 7.13206 | -73.18650 | 3911 ft | 12 kts | 295° |
| 2026-04-25 13:46 | 7.13293 | -73.18720 | 3911 ft | 22 kts | 338° |
| 2026-04-25 13:46 | 7.13442 | -73.18775 | 3911 ft | 23 kts | 340° |
| 2026-04-25 13:47 | 7.13576 | -73.18846 | 3911 ft | 21 kts | 307° |
| 2026-04-25 13:47 | 7.13643 | -73.18859 | 3911 ft | 5 kts | 88° |
| 2026-04-25 13:47 | 7.13616 | -73.18841 | 3911 ft | 5 kts | 159° |
| 2026-04-25 13:47 | 7.13572 | -73.18824 | 3911 ft | 18 kts | 159° |
| 2026-04-25 13:48 | 7.13200 | -73.18684 | 3911 ft | 93 kts | 159° |
| 2026-04-25 13:48 | 7.12395 | -73.18381 | 3899 ft | 152 kts | 160° |
| 2026-04-25 13:48 | 7.11389 | -73.17995 | 4606 ft | 153 kts | 159° |
| 2026-04-25 13:48 | 7.10384 | -73.17601 | 5271 ft | 157 kts | 158° |
| 2026-04-25 13:49 | 7.09366 | -73.17201 | 5842 ft | 160 kts | 158° |
| 2026-04-25 13:49 | 7.08309 | -73.16790 | 6450 ft | 161 kts | 159° |
| 2026-04-25 13:49 | 7.07262 | -73.16394 | 7036 ft | 161 kts | 159° |
| 2026-04-25 13:49 | 7.06158 | -73.15979 | 7371 ft | 180 kts | 159° |
| 2026-04-25 13:50 | 7.04921 | -73.15505 | 7654 ft | 200 kts | 159° |
| 2026-04-25 13:50 | 7.03554 | -73.15084 | 8069 ft | 211 kts | 177° |
| 2026-04-25 13:50 | 7.02169 | -73.15528 | 8542 ft | 217 kts | 220° |
| 2026-04-25 13:50 | 7.01229 | -73.16723 | 8965 ft | 221 kts | 237° |
| 2026-04-25 13:51 | 7.00455 | -73.18045 | 8970 ft | 218 kts | 241° |
| 2026-04-25 13:51 | 6.99747 | -73.19364 | 8971 ft | 217 kts | 242° |
| 2026-04-25 13:51 | 6.99034 | -73.20697 | 8973 ft | 216 kts | 242° |
| 2026-04-25 13:51 | 6.98597 | -73.22130 | 8968 ft | 216 kts | 269° |
| 2026-04-25 13:52 | 6.98892 | -73.23735 | 8928 ft | 251 kts | 287° |
| 2026-04-25 13:52 | 6.99426 | -73.25514 | 9022 ft | 284 kts | 287° |
| 2026-04-25 13:52 | 7.00004 | -73.27451 | 9771 ft | 293 kts | 287° |
| 2026-04-25 13:52 | 7.00596 | -73.29449 | 10481 ft | 301 kts | 287° |
| 2026-04-25 13:53 | 7.01147 | -73.31489 | 11330 ft | 304 kts | 279° |
| 2026-04-25 13:53 | 7.01132 | -73.33618 | 12140 ft | 308 kts | 258° |
| 2026-04-25 13:53 | 7.00532 | -73.35696 | 12966 ft | 311 kts | 252° |
| 2026-04-25 13:53 | 6.99879 | -73.37782 | 13747 ft | 314 kts | 253° |
| 2026-04-25 13:54 | 6.99206 | -73.39937 | 14123 ft | 334 kts | 253° |
| 2026-04-25 13:54 | 6.98488 | -73.42245 | 14303 ft | 356 kts | 253° |
| 2026-04-25 13:54 | 6.97738 | -73.44664 | 14753 ft | 366 kts | 253° |
| 2026-04-25 13:54 | 6.96918 | -73.47101 | 15362 ft | 370 kts | 246° |
| 2026-04-25 13:55 | 6.95590 | -73.49333 | 15994 ft | 375 kts | 231° |
| 2026-04-25 13:55 | 6.93717 | -73.51177 | 16615 ft | 379 kts | 220° |
| 2026-04-25 13:55 | 6.91674 | -73.52878 | 17267 ft | 382 kts | 220° |
| 2026-04-25 13:55 | 6.89618 | -73.54595 | 17898 ft | 386 kts | 220° |
| 2026-04-25 13:56 | 6.87547 | -73.56332 | 18487 ft | 390 kts | 220° |
| 2026-04-25 13:56 | 6.85458 | -73.58089 | 19017 ft | 393 kts | 220° |
| 2026-04-25 13:56 | 6.83355 | -73.59857 | 19535 ft | 396 kts | 220° |
| 2026-04-25 13:56 | 6.81231 | -73.61643 | 20049 ft | 399 kts | 220° |
| 2026-04-25 13:57 | 6.79094 | -73.63440 | 20566 ft | 402 kts | 220° |
| 2026-04-25 13:57 | 6.77669 | -73.64638 | 20892 ft | 404 kts | 220° |
| 2026-04-25 13:57 | 6.74768 | -73.67080 | 21551 ft | 408 kts | 220° |
| 2026-04-25 13:57 | 6.72582 | -73.68917 | 21931 ft | 411 kts | 220° |
| 2026-04-25 13:58 | 6.70380 | -73.70767 | 22028 ft | 414 kts | 220° |
| 2026-04-25 13:58 | 6.68158 | -73.72633 | 22056 ft | 418 kts | 220° |
| 2026-04-25 13:58 | 6.65926 | -73.74512 | 22053 ft | 418 kts | 220° |
| 2026-04-25 13:58 | 6.63721 | -73.76376 | 22063 ft | 419 kts | 220° |
| 2026-04-25 13:59 | 6.61496 | -73.78264 | 22056 ft | 419 kts | 220° |
| 2026-04-25 13:59 | 6.59268 | -73.80158 | 22044 ft | 419 kts | 220° |
| 2026-04-25 13:59 | 6.57041 | -73.82049 | 22049 ft | 419 kts | 220° |
| 2026-04-25 13:59 | 6.54811 | -73.83939 | 22044 ft | 419 kts | 220° |
| 2026-04-25 14:00 | 6.52574 | -73.85831 | 22046 ft | 420 kts | 220° |
| 2026-04-25 14:00 | 6.50340 | -73.87719 | 22052 ft | 420 kts | 220° |
| 2026-04-25 14:00 | 6.48040 | -73.89526 | 22042 ft | 420 kts | 213° |
| 2026-04-25 14:00 | 6.45476 | -73.90917 | 22049 ft | 420 kts | 203° |
| 2026-04-25 14:01 | 6.42699 | -73.91814 | 22039 ft | 420 kts | 192° |
| 2026-04-25 14:01 | 6.39824 | -73.92355 | 22033 ft | 420 kts | 190° |
| 2026-04-25 14:01 | 6.36950 | -73.92886 | 22034 ft | 420 kts | 191° |
| 2026-04-25 14:01 | 6.34081 | -73.93422 | 22026 ft | 420 kts | 191° |
| 2026-04-25 14:02 | 6.31205 | -73.93961 | 22024 ft | 420 kts | 191° |
| 2026-04-25 14:02 | 6.28335 | -73.94499 | 22034 ft | 420 kts | 191° |
| 2026-04-25 14:02 | 6.25461 | -73.95036 | 22028 ft | 420 kts | 191° |
| 2026-04-25 14:02 | 6.24528 | -73.95211 | 22033 ft | 420 kts | 191° |
| 2026-04-25 14:03 | 6.19712 | -73.96113 | 22028 ft | 420 kts | 191° |
| 2026-04-25 14:03 | 6.16839 | -73.96652 | 22032 ft | 420 kts | 191° |
| 2026-04-25 14:03 | 6.13964 | -73.97189 | 22066 ft | 420 kts | 191° |
| 2026-04-25 14:03 | 6.11092 | -73.97725 | 22070 ft | 420 kts | 191° |
| 2026-04-25 14:04 | 6.08212 | -73.98263 | 22068 ft | 420 kts | 191° |
| 2026-04-25 14:04 | 6.05343 | -73.98799 | 22062 ft | 420 kts | 191° |
| 2026-04-25 14:04 | 6.02506 | -73.99329 | 22064 ft | 420 kts | 191° |
| 2026-04-25 14:04 | 5.99633 | -73.99867 | 22110 ft | 420 kts | 191° |
| 2026-04-25 14:05 | 5.96763 | -74.00407 | 22109 ft | 420 kts | 191° |
| 2026-04-25 14:05 | 5.93890 | -74.00951 | 22108 ft | 420 kts | 191° |
| 2026-04-25 14:05 | 5.91020 | -74.01498 | 22105 ft | 420 kts | 191° |
| 2026-04-25 14:05 | 5.88150 | -74.02046 | 22104 ft | 420 kts | 191° |
| 2026-04-25 14:06 | 5.85280 | -74.02594 | 22135 ft | 420 kts | 191° |
| 2026-04-25 14:06 | 5.82410 | -74.03141 | 22143 ft | 420 kts | 191° |
| 2026-04-25 14:06 | 5.79538 | -74.03687 | 22143 ft | 420 kts | 191° |
| 2026-04-25 14:06 | 5.76669 | -74.04232 | 22137 ft | 420 kts | 191° |
| 2026-04-25 14:07 | 5.73795 | -74.04776 | 22140 ft | 420 kts | 191° |
| 2026-04-25 14:07 | 5.70920 | -74.05319 | 22179 ft | 420 kts | 191° |
| 2026-04-25 14:07 | 5.68044 | -74.05862 | 22188 ft | 420 kts | 191° |
| 2026-04-25 14:07 | 5.65169 | -74.06407 | 22187 ft | 420 kts | 191° |
| 2026-04-25 14:08 | 5.62292 | -74.06953 | 22179 ft | 420 kts | 191° |
| 2026-04-25 14:08 | 5.59445 | -74.07494 | 22125 ft | 421 kts | 191° |
| 2026-04-25 14:08 | 5.56564 | -74.08042 | 22175 ft | 421 kts | 191° |
| 2026-04-25 14:08 | 5.53687 | -74.08590 | 22177 ft | 421 kts | 191° |
| 2026-04-25 14:09 | 5.50805 | -74.09138 | 22173 ft | 421 kts | 191° |
| 2026-04-25 14:09 | 5.47933 | -74.09682 | 22170 ft | 420 kts | 191° |
| 2026-04-25 14:09 | 5.45073 | -74.10281 | 22162 ft | 420 kts | 197° |
| 2026-04-25 14:09 | 5.44136 | -74.10585 | 22156 ft | 419 kts | 201° |
| 2026-04-25 14:10 | 5.40097 | -74.12956 | 22079 ft | 393 kts | 221° |
| 2026-04-25 14:10 | 5.38225 | -74.14893 | 21787 ft | 383 kts | 229° |
| 2026-04-25 14:10 | 5.36469 | -74.16884 | 21363 ft | 378 kts | 229° |
| 2026-04-25 14:10 | 5.34736 | -74.18853 | 20922 ft | 375 kts | 229° |
| 2026-04-25 14:11 | 5.33019 | -74.20805 | 20487 ft | 372 kts | 229° |
| 2026-04-25 14:11 | 5.31210 | -74.22638 | 19999 ft | 369 kts | 218° |
| 2026-04-25 14:11 | 5.28999 | -74.23918 | 19562 ft | 367 kts | 206° |
| 2026-04-25 14:11 | 5.26692 | -74.25008 | 19169 ft | 365 kts | 206° |
| 2026-04-25 14:12 | 5.24399 | -74.26082 | 18784 ft | 363 kts | 206° |
| 2026-04-25 14:12 | 5.22116 | -74.27148 | 18389 ft | 361 kts | 206° |
| 2026-04-25 14:12 | 5.19847 | -74.28205 | 18045 ft | 356 kts | 206° |
| 2026-04-25 14:12 | 5.17635 | -74.29236 | 17909 ft | 344 kts | 206° |
| 2026-04-25 14:13 | 5.15491 | -74.30234 | 17750 ft | 335 kts | 206° |
| 2026-04-25 14:13 | 5.13395 | -74.31213 | 17503 ft | 331 kts | 206° |
| 2026-04-25 14:13 | 5.11316 | -74.32188 | 17180 ft | 329 kts | 206° |
| 2026-04-25 14:13 | 5.09254 | -74.33157 | 16835 ft | 326 kts | 206° |
| 2026-04-25 14:14 | 5.07203 | -74.34120 | 16479 ft | 325 kts | 206° |
| 2026-04-25 14:14 | 5.05152 | -74.35081 | 16034 ft | 327 kts | 206° |
| 2026-04-25 14:14 | 5.03080 | -74.36051 | 15471 ft | 331 kts | 206° |
| 2026-04-25 14:14 | 5.00985 | -74.37029 | 14991 ft | 333 kts | 206° |
| 2026-04-25 14:15 | 4.98879 | -74.38011 | 14534 ft | 335 kts | 206° |
| 2026-04-25 14:15 | 4.98194 | -74.38329 | 14383 ft | 335 kts | 206° |
| 2026-04-25 14:15 | 4.94641 | -74.39982 | 13616 ft | 335 kts | 204° |
| 2026-04-25 14:15 | 4.92418 | -74.40530 | 13138 ft | 336 kts | 182° |
| 2026-04-25 14:16 | 4.90127 | -74.40175 | 12700 ft | 336 kts | 159° |
| 2026-04-25 14:16 | 4.88138 | -74.38964 | 12261 ft | 336 kts | 141° |
| 2026-04-25 14:16 | 4.86444 | -74.37366 | 11902 ft | 332 kts | 129° |
| 2026-04-25 14:16 | 4.85090 | -74.35548 | 11875 ft | 318 kts | 126° |
| 2026-04-25 14:17 | 4.83824 | -74.33813 | 11900 ft | 297 kts | 126° |
| 2026-04-25 14:17 | 4.82644 | -74.32228 | 11895 ft | 272 kts | 127° |
| 2026-04-25 14:17 | 4.81526 | -74.30754 | 11652 ft | 260 kts | 127° |
| 2026-04-25 14:17 | 4.80451 | -74.29337 | 11360 ft | 251 kts | 127° |
| 2026-04-25 14:18 | 4.79413 | -74.27966 | 11074 ft | 244 kts | 127° |
| 2026-04-25 14:18 | 4.78403 | -74.26631 | 10793 ft | 236 kts | 127° |
| 2026-04-25 14:18 | 4.77439 | -74.25358 | 10528 ft | 223 kts | 127° |
| 2026-04-25 14:18 | 4.76513 | -74.24135 | 10246 ft | 216 kts | 127° |
| 2026-04-25 14:19 | 4.75635 | -74.22975 | 9978 ft | 200 kts | 127° |
| 2026-04-25 14:19 | 4.74822 | -74.21901 | 9725 ft | 187 kts | 127° |
| 2026-04-25 14:19 | 4.74059 | -74.20893 | 9479 ft | 176 kts | 127° |
| 2026-04-25 14:19 | 4.73336 | -74.19938 | 9224 ft | 169 kts | 125° |
| 2026-04-25 14:20 | 4.72637 | -74.19010 | 8974 ft | 165 kts | 126° |
| 2026-04-25 14:20 | 4.72401 | -74.18703 | 8885 ft | 164 kts | 125° |
| 2026-04-25 14:20 | 4.71275 | -74.17207 | 8459 ft | 160 kts | 125° |
| 2026-04-25 14:20 | 4.70622 | -74.16340 | 8375 ft | 143 kts | 128° |
| 2026-04-25 14:21 | 4.70123 | -74.15685 | 8373 ft | 93 kts | 127° |
| 2026-04-25 14:21 | 4.69824 | -74.15287 | 8374 ft | 53 kts | 124° |
| 2026-04-25 14:21 | 4.69716 | -74.15004 | 8373 ft | 29 kts | 92° |
| 2026-04-25 14:21 | 4.69749 | -74.14878 | 8372 ft | 13 kts | 79° |
| 2026-04-25 14:22 | 4.69781 | -74.14802 | 8372 ft | 11 kts | 38° |
| 2026-04-25 14:22 | 4.69843 | -74.14753 | 8373 ft | 14 kts | 41° |
| 2026-04-25 14:22 | 4.69936 | -74.14679 | 8373 ft | 20 kts | 37° |
| 2026-04-25 14:22 | 4.70015 | -74.14622 | 8373 ft | 21 kts | 38° |
| 2026-04-25 14:23 | 4.70011 | -74.14527 | 8373 ft | 10 kts | 135° |
| 2026-04-25 14:23 | 4.69981 | -74.14493 | 8373 ft | 9 kts | 128° |
| 2026-04-25 14:23 | 4.69942 | -74.14441 | 8373 ft | 5 kts | 127° |
| 2026-04-25 14:23 | 4.69923 | -74.14416 | 8371 ft | 8 kts | 126° |
| 2026-04-25 14:24 | 4.69890 | -74.14395 | 8373 ft | 7 kts | 200° |
| 2026-04-25 14:24 | 4.69865 | -74.14425 | 8373 ft | 1 kts | 229° |
| 2026-04-25 14:24 | 4.69864 | -74.14426 | 8373 ft | 0 kts | 229° |